sensor_id;sensor_type;location;lat;lon;timestamp;temperature;humidity
12967;DHT22;6548;49.996;8.238;2023-08-21T00:00:11;23.90;99.90
12967;DHT22;6548;49.996;8.238;2023-08-21T00:02:38;23.80;99.90
12967;DHT22;6548;49.996;8.238;2023-08-21T00:05:04;23.80;99.90
12967;DHT22;6548;49.996;8.238;2023-08-21T00:07:30;23.80;99.90
12967;DHT22;6548;49.996;8.238;2023-08-21T00:09:55;23.80;99.90
12967;DHT22;6548;49.996;8.238;2023-08-21T00:12:21;23.80;99.90
12967;DHT22;6548;49.996;8.238;2023-08-21T00:14:46;23.80;99.90
12967;DHT22;6548;49.996;8.238;2023-08-21T00:17:12;23.80;99.90
12967;DHT22;6548;49.996;8.238;2023-08-21T00:19:37;23.80;99.90
12967;DHT22;6548;49.996;8.238;2023-08-21T00:22:03;23.70;99.90
12967;DHT22;6548;49.996;8.238;2023-08-21T00:24:29;23.80;99.90
12967;DHT22;6548;49.996;8.238;2023-08-21T00:26:54;23.70;99.90
12967;DHT22;6548;49.996;8.238;2023-08-21T00:29:20;23.70;99.90
12967;DHT22;6548;49.996;8.238;2023-08-21T00:31:45;23.60;99.90
12967;DHT22;6548;49.996;8.238;2023-08-21T00:34:11;23.60;99.90
12967;DHT22;6548;49.996;8.238;2023-08-21T00:36:37;23.50;99.90
12967;DHT22;6548;49.996;8.238;2023-08-21T00:39:02;23.40;99.90
12967;DHT22;6548;49.996;8.238;2023-08-21T00:41:28;23.40;99.90
12967;DHT22;6548;49.996;8.238;2023-08-21T00:43:53;23.40;99.90
12967;DHT22;6548;49.996;8.238;2023-08-21T00:46:19;23.30;99.90
12967;DHT22;6548;49.996;8.238;2023-08-21T00:48:45;23.30;99.90
12967;DHT22;6548;49.996;8.238;2023-08-21T00:51:13;23.30;99.90
12967;DHT22;6548;49.996;8.238;2023-08-21T00:53:39;23.20;99.90
12967;DHT22;6548;49.996;8.238;2023-08-21T00:56:05;23.20;99.90
12967;DHT22;6548;49.996;8.238;2023-08-21T00:58:31;23.20;99.90
12967;DHT22;6548;49.996;8.238;2023-08-21T01:00:56;23.20;99.90
12967;DHT22;6548;49.996;8.238;2023-08-21T01:03:23;23.20;99.90
12967;DHT22;6548;49.996;8.238;2023-08-21T01:05:49;23.10;99.90
12967;DHT22;6548;49.996;8.238;2023-08-21T01:08:25;23.10;99.90
12967;DHT22;6548;49.996;8.238;2023-08-21T01:11:02;23.00;99.90
12967;DHT22;6548;49.996;8.238;2023-08-21T01:16:08;22.90;99.90
12967;DHT22;6548;49.996;8.238;2023-08-21T01:18:34;22.90;99.90
12967;DHT22;6548;49.996;8.238;2023-08-21T01:21:02;23.00;99.90
12967;DHT22;6548;49.996;8.238;2023-08-21T01:23:36;22.90;99.90
12967;DHT22;6548;49.996;8.238;2023-08-21T01:26:03;22.80;99.90
12967;DHT22;6548;49.996;8.238;2023-08-21T01:28:30;22.80;99.90
12967;DHT22;6548;49.996;8.238;2023-08-21T01:31:11;22.90;99.90
12967;DHT22;6548;49.996;8.238;2023-08-21T01:33:44;22.90;99.90
12967;DHT22;6548;49.996;8.238;2023-08-21T01:36:10;22.90;99.90
12967;DHT22;6548;49.996;8.238;2023-08-21T01:38:36;22.80;99.90
12967;DHT22;6548;49.996;8.238;2023-08-21T01:41:02;22.80;99.90
12967;DHT22;6548;49.996;8.238;2023-08-21T01:43:28;22.80;99.90
12967;DHT22;6548;49.996;8.238;2023-08-21T01:45:54;22.90;99.90
12967;DHT22;6548;49.996;8.238;2023-08-21T01:48:20;22.80;99.90
12967;DHT22;6548;49.996;8.238;2023-08-21T01:50:45;22.80;99.90
12967;DHT22;6548;49.996;8.238;2023-08-21T01:53:11;22.80;99.90
12967;DHT22;6548;49.996;8.238;2023-08-21T01:55:36;22.80;99.90
12967;DHT22;6548;49.996;8.238;2023-08-21T01:58:02;22.80;99.90
12967;DHT22;6548;49.996;8.238;2023-08-21T02:00:28;22.80;99.90
12967;DHT22;6548;49.996;8.238;2023-08-21T02:02:53;22.80;99.90
12967;DHT22;6548;49.996;8.238;2023-08-21T02:05:19;22.80;99.90
12967;DHT22;6548;49.996;8.238;2023-08-21T02:07:44;22.80;99.90
12967;DHT22;6548;49.996;8.238;2023-08-21T02:10:10;22.80;99.90
12967;DHT22;6548;49.996;8.238;2023-08-21T02:12:36;22.80;99.90
12967;DHT22;6548;49.996;8.238;2023-08-21T02:15:01;22.70;99.90
12967;DHT22;6548;49.996;8.238;2023-08-21T02:17:27;22.80;99.90
12967;DHT22;6548;49.996;8.238;2023-08-21T02:19:52;22.80;99.90
12967;DHT22;6548;49.996;8.238;2023-08-21T02:22:18;22.80;99.90
12967;DHT22;6548;49.996;8.238;2023-08-21T02:24:43;22.80;99.90
12967;DHT22;6548;49.996;8.238;2023-08-21T02:27:09;22.80;99.90
12967;DHT22;6548;49.996;8.238;2023-08-21T02:29:34;22.70;99.90
12967;DHT22;6548;49.996;8.238;2023-08-21T02:32:00;22.70;99.90
12967;DHT22;6548;49.996;8.238;2023-08-21T02:37:41;22.60;99.90
12967;DHT22;6548;49.996;8.238;2023-08-21T02:40:07;22.60;99.90
12967;DHT22;6548;49.996;8.238;2023-08-21T02:42:34;22.60;99.90
12967;DHT22;6548;49.996;8.238;2023-08-21T02:44:59;22.60;99.90
12967;DHT22;6548;49.996;8.238;2023-08-21T02:47:29;22.50;99.90
12967;DHT22;6548;49.996;8.238;2023-08-21T02:49:54;22.50;99.90
12967;DHT22;6548;49.996;8.238;2023-08-21T02:52:20;22.50;99.90
12967;DHT22;6548;49.996;8.238;2023-08-21T02:54:45;22.50;99.90
12967;DHT22;6548;49.996;8.238;2023-08-21T02:57:11;22.50;99.90
12967;DHT22;6548;49.996;8.238;2023-08-21T02:59:37;22.40;99.90
12967;DHT22;6548;49.996;8.238;2023-08-21T03:02:02;22.40;99.90
12967;DHT22;6548;49.996;8.238;2023-08-21T03:04:28;22.40;99.90
12967;DHT22;6548;49.996;8.238;2023-08-21T03:06:53;22.30;99.90
12967;DHT22;6548;49.996;8.238;2023-08-21T03:09:19;22.30;99.90
12967;DHT22;6548;49.996;8.238;2023-08-21T03:11:44;22.20;99.90
12967;DHT22;6548;49.996;8.238;2023-08-21T03:14:10;22.20;99.90
12967;DHT22;6548;49.996;8.238;2023-08-21T03:16:35;22.10;99.90
12967;DHT22;6548;49.996;8.238;2023-08-21T03:19:01;22.10;99.90
12967;DHT22;6548;49.996;8.238;2023-08-21T03:21:27;22.10;99.90
12967;DHT22;6548;49.996;8.238;2023-08-21T03:23:58;22.10;99.90
12967;DHT22;6548;49.996;8.238;2023-08-21T03:26:24;22.00;99.90
12967;DHT22;6548;49.996;8.238;2023-08-21T03:28:50;21.90;99.90
12967;DHT22;6548;49.996;8.238;2023-08-21T03:31:16;21.90;99.90
12967;DHT22;6548;49.996;8.238;2023-08-21T03:33:42;21.90;99.90
12967;DHT22;6548;49.996;8.238;2023-08-21T03:36:07;21.90;99.90
12967;DHT22;6548;49.996;8.238;2023-08-21T03:38:33;21.90;99.90
12967;DHT22;6548;49.996;8.238;2023-08-21T03:40:59;21.80;99.90
12967;DHT22;6548;49.996;8.238;2023-08-21T03:43:25;21.90;99.90
12967;DHT22;6548;49.996;8.238;2023-08-21T03:45:50;21.90;99.90
12967;DHT22;6548;49.996;8.238;2023-08-21T03:48:16;21.90;99.90
12967;DHT22;6548;49.996;8.238;2023-08-21T03:50:41;21.80;99.90
12967;DHT22;6548;49.996;8.238;2023-08-21T03:53:07;21.90;99.90
12967;DHT22;6548;49.996;8.238;2023-08-21T03:55:33;21.80;99.90
12967;DHT22;6548;49.996;8.238;2023-08-21T03:57:59;21.80;99.90
12967;DHT22;6548;49.996;8.238;2023-08-21T04:00:25;21.80;99.90
12967;DHT22;6548;49.996;8.238;2023-08-21T04:02:50;21.90;99.90
12967;DHT22;6548;49.996;8.238;2023-08-21T04:05:16;21.90;99.90
12967;DHT22;6548;49.996;8.238;2023-08-21T04:07:47;21.80;99.90
12967;DHT22;6548;49.996;8.238;2023-08-21T04:10:12;21.80;99.90
12967;DHT22;6548;49.996;8.238;2023-08-21T04:12:38;21.90;99.90
12967;DHT22;6548;49.996;8.238;2023-08-21T04:15:03;21.80;99.90
12967;DHT22;6548;49.996;8.238;2023-08-21T04:17:30;21.80;99.90
12967;DHT22;6548;49.996;8.238;2023-08-21T04:19:55;21.70;99.90
12967;DHT22;6548;49.996;8.238;2023-08-21T04:22:21;21.70;99.90
12967;DHT22;6548;49.996;8.238;2023-08-21T04:24:47;21.70;99.90
12967;DHT22;6548;49.996;8.238;2023-08-21T04:27:12;21.70;99.90
12967;DHT22;6548;49.996;8.238;2023-08-21T04:29:38;21.70;99.90
12967;DHT22;6548;49.996;8.238;2023-08-21T04:32:05;21.70;99.90
12967;DHT22;6548;49.996;8.238;2023-08-21T04:34:32;21.70;99.90
12967;DHT22;6548;49.996;8.238;2023-08-21T04:36:58;21.60;99.90
12967;DHT22;6548;49.996;8.238;2023-08-21T04:39:23;21.60;99.90
12967;DHT22;6548;49.996;8.238;2023-08-21T04:41:49;21.60;99.90
12967;DHT22;6548;49.996;8.238;2023-08-21T04:44:15;21.70;99.90
12967;DHT22;6548;49.996;8.238;2023-08-21T04:46:40;21.70;99.90
12967;DHT22;6548;49.996;8.238;2023-08-21T04:49:06;21.70;99.90
12967;DHT22;6548;49.996;8.238;2023-08-21T04:51:31;21.70;99.90
12967;DHT22;6548;49.996;8.238;2023-08-21T04:53:57;21.80;99.90
12967;DHT22;6548;49.996;8.238;2023-08-21T04:56:24;21.90;99.90
12967;DHT22;6548;49.996;8.238;2023-08-21T04:58:50;22.00;99.90
12967;DHT22;6548;49.996;8.238;2023-08-21T05:01:15;22.00;99.90
12967;DHT22;6548;49.996;8.238;2023-08-21T05:03:41;22.10;99.90
12967;DHT22;6548;49.996;8.238;2023-08-21T05:06:07;22.20;99.90
12967;DHT22;6548;49.996;8.238;2023-08-21T05:08:34;22.30;99.90
12967;DHT22;6548;49.996;8.238;2023-08-21T05:11:00;22.30;99.90
12967;DHT22;6548;49.996;8.238;2023-08-21T05:13:26;22.30;99.90
12967;DHT22;6548;49.996;8.238;2023-08-21T05:15:52;22.50;99.90
12967;DHT22;6548;49.996;8.238;2023-08-21T05:18:19;22.60;99.90
12967;DHT22;6548;49.996;8.238;2023-08-21T05:20:44;22.60;99.90
12967;DHT22;6548;49.996;8.238;2023-08-21T05:23:10;22.60;99.90
12967;DHT22;6548;49.996;8.238;2023-08-21T05:25:35;22.60;99.90
12967;DHT22;6548;49.996;8.238;2023-08-21T05:31:23;22.70;99.90
12967;DHT22;6548;49.996;8.238;2023-08-21T05:33:49;22.60;99.90
12967;DHT22;6548;49.996;8.238;2023-08-21T05:36:14;22.70;99.90
12967;DHT22;6548;49.996;8.238;2023-08-21T05:38:40;22.70;99.90
12967;DHT22;6548;49.996;8.238;2023-08-21T05:44:27;22.70;99.90
12967;DHT22;6548;49.996;8.238;2023-08-21T05:46:53;22.80;99.90
12967;DHT22;6548;49.996;8.238;2023-08-21T05:52:38;22.70;99.90
12967;DHT22;6548;49.996;8.238;2023-08-21T05:55:04;22.70;99.90
12967;DHT22;6548;49.996;8.238;2023-08-21T05:57:30;22.70;99.90
12967;DHT22;6548;49.996;8.238;2023-08-21T05:59:56;22.80;99.90
12967;DHT22;6548;49.996;8.238;2023-08-21T06:02:21;22.80;99.90
12967;DHT22;6548;49.996;8.238;2023-08-21T06:05:13;22.90;99.90
12967;DHT22;6548;49.996;8.238;2023-08-21T06:08:15;22.90;99.90
12967;DHT22;6548;49.996;8.238;2023-08-21T06:10:41;23.10;99.90
12967;DHT22;6548;49.996;8.238;2023-08-21T06:13:06;23.20;99.90
12967;DHT22;6548;49.996;8.238;2023-08-21T06:15:32;23.30;99.90
12967;DHT22;6548;49.996;8.238;2023-08-21T06:17:58;23.40;99.90
12967;DHT22;6548;49.996;8.238;2023-08-21T06:20:24;23.50;99.90
12967;DHT22;6548;49.996;8.238;2023-08-21T06:22:50;23.50;99.90
12967;DHT22;6548;49.996;8.238;2023-08-21T06:25:15;23.60;99.90
12967;DHT22;6548;49.996;8.238;2023-08-21T06:27:41;23.80;99.90
12967;DHT22;6548;49.996;8.238;2023-08-21T06:30:07;23.90;99.90
12967;DHT22;6548;49.996;8.238;2023-08-21T06:32:36;24.00;99.90
12967;DHT22;6548;49.996;8.238;2023-08-21T06:35:01;24.00;99.90
12967;DHT22;6548;49.996;8.238;2023-08-21T06:37:27;24.20;99.90
12967;DHT22;6548;49.996;8.238;2023-08-21T06:39:52;24.30;99.90
12967;DHT22;6548;49.996;8.238;2023-08-21T06:42:18;24.30;99.90
12967;DHT22;6548;49.996;8.238;2023-08-21T06:44:43;24.40;99.90
12967;DHT22;6548;49.996;8.238;2023-08-21T06:47:09;24.50;99.90
12967;DHT22;6548;49.996;8.238;2023-08-21T06:49:34;24.60;99.90
12967;DHT22;6548;49.996;8.238;2023-08-21T06:52:00;24.80;99.90
12967;DHT22;6548;49.996;8.238;2023-08-21T06:54:25;24.90;99.90
12967;DHT22;6548;49.996;8.238;2023-08-21T06:56:51;25.00;99.90
12967;DHT22;6548;49.996;8.238;2023-08-21T06:59:16;25.20;99.90
12967;DHT22;6548;49.996;8.238;2023-08-21T07:01:42;25.40;99.90
12967;DHT22;6548;49.996;8.238;2023-08-21T07:04:07;25.30;99.90
12967;DHT22;6548;49.996;8.238;2023-08-21T07:06:33;25.30;99.90
12967;DHT22;6548;49.996;8.238;2023-08-21T07:08:58;25.40;99.90
12967;DHT22;6548;49.996;8.238;2023-08-21T07:11:24;25.60;99.90
12967;DHT22;6548;49.996;8.238;2023-08-21T07:13:49;25.70;99.90
12967;DHT22;6548;49.996;8.238;2023-08-21T07:16:15;26.00;99.90
12967;DHT22;6548;49.996;8.238;2023-08-21T07:18:40;26.10;99.90
12967;DHT22;6548;49.996;8.238;2023-08-21T07:21:06;26.40;99.90
12967;DHT22;6548;49.996;8.238;2023-08-21T07:23:32;26.60;99.90
12967;DHT22;6548;49.996;8.238;2023-08-21T07:25:58;27.00;99.90
12967;DHT22;6548;49.996;8.238;2023-08-21T07:28:24;27.00;99.90
12967;DHT22;6548;49.996;8.238;2023-08-21T07:30:56;27.10;99.90
12967;DHT22;6548;49.996;8.238;2023-08-21T07:33:23;27.30;99.90
12967;DHT22;6548;49.996;8.238;2023-08-21T07:35:57;27.60;99.90
12967;DHT22;6548;49.996;8.238;2023-08-21T07:38:22;27.60;99.90
12967;DHT22;6548;49.996;8.238;2023-08-21T07:40:48;27.80;99.90
12967;DHT22;6548;49.996;8.238;2023-08-21T07:43:13;27.80;99.90
12967;DHT22;6548;49.996;8.238;2023-08-21T07:45:39;28.00;99.90
12967;DHT22;6548;49.996;8.238;2023-08-21T07:48:05;28.20;99.90
12967;DHT22;6548;49.996;8.238;2023-08-21T07:50:30;28.50;99.90
12967;DHT22;6548;49.996;8.238;2023-08-21T07:52:56;28.40;99.90
12967;DHT22;6548;49.996;8.238;2023-08-21T07:55:21;28.50;99.90
12967;DHT22;6548;49.996;8.238;2023-08-21T07:57:47;28.60;99.90
12967;DHT22;6548;49.996;8.238;2023-08-21T08:00:13;28.90;99.90
12967;DHT22;6548;49.996;8.238;2023-08-21T08:02:39;29.00;99.90
12967;DHT22;6548;49.996;8.238;2023-08-21T08:05:05;29.20;99.90
12967;DHT22;6548;49.996;8.238;2023-08-21T08:07:31;29.10;99.90
12967;DHT22;6548;49.996;8.238;2023-08-21T08:09:56;29.00;99.90
12967;DHT22;6548;49.996;8.238;2023-08-21T08:12:22;28.90;99.90
12967;DHT22;6548;49.996;8.238;2023-08-21T08:14:47;29.10;99.90
12967;DHT22;6548;49.996;8.238;2023-08-21T08:17:13;29.20;99.90
12967;DHT22;6548;49.996;8.238;2023-08-21T08:19:38;29.30;99.90
12967;DHT22;6548;49.996;8.238;2023-08-21T08:22:04;29.60;99.90
12967;DHT22;6548;49.996;8.238;2023-08-21T08:24:29;29.60;99.90
12967;DHT22;6548;49.996;8.238;2023-08-21T08:26:55;29.40;99.90
12967;DHT22;6548;49.996;8.238;2023-08-21T08:29:21;29.50;99.90
12967;DHT22;6548;49.996;8.238;2023-08-21T08:31:46;29.90;99.90
12967;DHT22;6548;49.996;8.238;2023-08-21T08:34:12;30.00;99.90
12967;DHT22;6548;49.996;8.238;2023-08-21T08:36:37;30.10;99.90
12967;DHT22;6548;49.996;8.238;2023-08-21T08:39:03;30.50;99.90
12967;DHT22;6548;49.996;8.238;2023-08-21T08:44:07;30.50;99.90
12967;DHT22;6548;49.996;8.238;2023-08-21T08:46:33;30.20;99.90
12967;DHT22;6548;49.996;8.238;2023-08-21T08:49:00;30.50;99.90
12967;DHT22;6548;49.996;8.238;2023-08-21T08:51:29;30.70;99.90
12967;DHT22;6548;49.996;8.238;2023-08-21T08:53:58;30.70;99.90
12967;DHT22;6548;49.996;8.238;2023-08-21T08:56:24;30.50;99.90
12967;DHT22;6548;49.996;8.238;2023-08-21T08:58:50;30.70;99.90
12967;DHT22;6548;49.996;8.238;2023-08-21T09:01:16;31.20;99.90
12967;DHT22;6548;49.996;8.238;2023-08-21T09:03:41;31.40;99.90
12967;DHT22;6548;49.996;8.238;2023-08-21T09:06:07;31.20;99.90
12967;DHT22;6548;49.996;8.238;2023-08-21T09:08:32;30.70;99.90
12967;DHT22;6548;49.996;8.238;2023-08-21T09:11:01;30.80;99.90
12967;DHT22;6548;49.996;8.238;2023-08-21T09:13:27;30.90;99.90
12967;DHT22;6548;49.996;8.238;2023-08-21T09:15:54;31.40;99.90
12967;DHT22;6548;49.996;8.238;2023-08-21T09:18:20;31.40;99.90
12967;DHT22;6548;49.996;8.238;2023-08-21T09:20:46;31.50;99.90
12967;DHT22;6548;49.996;8.238;2023-08-21T09:23:14;31.70;99.90
12967;DHT22;6548;49.996;8.238;2023-08-21T09:25:40;31.80;99.90
12967;DHT22;6548;49.996;8.238;2023-08-21T09:28:08;32.10;99.90
12967;DHT22;6548;49.996;8.238;2023-08-21T09:30:50;32.30;99.90
12967;DHT22;6548;49.996;8.238;2023-08-21T09:33:18;33.00;99.90
12967;DHT22;6548;49.996;8.238;2023-08-21T09:35:44;33.50;99.90
12967;DHT22;6548;49.996;8.238;2023-08-21T09:38:10;33.30;99.90
12967;DHT22;6548;49.996;8.238;2023-08-21T09:40:44;33.40;99.90
12967;DHT22;6548;49.996;8.238;2023-08-21T09:43:16;33.30;99.90
12967;DHT22;6548;49.996;8.238;2023-08-21T09:45:46;33.50;99.90
12967;DHT22;6548;49.996;8.238;2023-08-21T09:48:12;33.10;99.90
12967;DHT22;6548;49.996;8.238;2023-08-21T09:50:38;33.20;99.90
12967;DHT22;6548;49.996;8.238;2023-08-21T09:53:06;33.40;99.90
12967;DHT22;6548;49.996;8.238;2023-08-21T09:55:33;33.70;99.90
12967;DHT22;6548;49.996;8.238;2023-08-21T09:57:59;33.70;99.90
12967;DHT22;6548;49.996;8.238;2023-08-21T10:00:33;34.30;99.90
12967;DHT22;6548;49.996;8.238;2023-08-21T10:03:02;33.80;99.90
12967;DHT22;6548;49.996;8.238;2023-08-21T10:05:29;34.10;99.90
12967;DHT22;6548;49.996;8.238;2023-08-21T10:07:55;34.10;99.90
12967;DHT22;6548;49.996;8.238;2023-08-21T10:10:21;34.30;99.90
12967;DHT22;6548;49.996;8.238;2023-08-21T10:12:48;34.50;99.90
12967;DHT22;6548;49.996;8.238;2023-08-21T10:15:14;34.60;99.90
12967;DHT22;6548;49.996;8.238;2023-08-21T10:17:42;34.80;99.90
12967;DHT22;6548;49.996;8.238;2023-08-21T10:20:09;35.00;99.90
12967;DHT22;6548;49.996;8.238;2023-08-21T10:22:49;35.20;99.90
12967;DHT22;6548;49.996;8.238;2023-08-21T10:25:22;35.20;99.90
12967;DHT22;6548;49.996;8.238;2023-08-21T10:27:53;35.30;99.90
12967;DHT22;6548;49.996;8.238;2023-08-21T10:30:21;35.50;99.90
12967;DHT22;6548;49.996;8.238;2023-08-21T10:32:48;35.60;99.90
12967;DHT22;6548;49.996;8.238;2023-08-21T10:35:16;35.50;99.90
12967;DHT22;6548;49.996;8.238;2023-08-21T10:40:30;35.20;99.90
12967;DHT22;6548;49.996;8.238;2023-08-21T10:42:55;35.40;99.90
12967;DHT22;6548;49.996;8.238;2023-08-21T10:45:21;35.30;99.90
12967;DHT22;6548;49.996;8.238;2023-08-21T10:47:46;35.50;99.90
12967;DHT22;6548;49.996;8.238;2023-08-21T10:50:14;35.80;99.90
12967;DHT22;6548;49.996;8.238;2023-08-21T10:52:40;35.90;99.90
12967;DHT22;6548;49.996;8.238;2023-08-21T10:55:08;35.70;99.90
12967;DHT22;6548;49.996;8.238;2023-08-21T10:57:37;35.50;99.90
12967;DHT22;6548;49.996;8.238;2023-08-21T11:00:13;35.30;99.90
12967;DHT22;6548;49.996;8.238;2023-08-21T11:02:44;35.30;99.90
12967;DHT22;6548;49.996;8.238;2023-08-21T11:05:10;35.60;99.90
12967;DHT22;6548;49.996;8.238;2023-08-21T11:07:44;36.10;99.90
12967;DHT22;6548;49.996;8.238;2023-08-21T11:10:16;36.00;99.90
12967;DHT22;6548;49.996;8.238;2023-08-21T11:12:55;35.50;99.90
12967;DHT22;6548;49.996;8.238;2023-08-21T11:15:22;35.50;99.90
12967;DHT22;6548;49.996;8.238;2023-08-21T11:17:55;35.00;99.90
12967;DHT22;6548;49.996;8.238;2023-08-21T11:20:22;34.90;99.90
12967;DHT22;6548;49.996;8.238;2023-08-21T11:22:48;35.20;99.90
12967;DHT22;6548;49.996;8.238;2023-08-21T11:25:15;35.20;99.90
12967;DHT22;6548;49.996;8.238;2023-08-21T11:27:41;35.50;99.90
12967;DHT22;6548;49.996;8.238;2023-08-21T11:30:10;35.40;99.90
12967;DHT22;6548;49.996;8.238;2023-08-21T11:32:36;35.30;99.90
12967;DHT22;6548;49.996;8.238;2023-08-21T11:35:02;35.30;99.90
12967;DHT22;6548;49.996;8.238;2023-08-21T11:37:28;35.30;99.90
12967;DHT22;6548;49.996;8.238;2023-08-21T11:39:56;35.30;99.90
12967;DHT22;6548;49.996;8.238;2023-08-21T11:42:29;35.10;99.90
12967;DHT22;6548;49.996;8.238;2023-08-21T11:44:55;34.80;99.90
12967;DHT22;6548;49.996;8.238;2023-08-21T11:47:22;34.60;99.90
12967;DHT22;6548;49.996;8.238;2023-08-21T11:49:48;34.50;99.90
12967;DHT22;6548;49.996;8.238;2023-08-21T11:52:21;34.40;99.90
12967;DHT22;6548;49.996;8.238;2023-08-21T11:54:49;34.20;99.90
12967;DHT22;6548;49.996;8.238;2023-08-21T11:57:16;33.60;99.90
12967;DHT22;6548;49.996;8.238;2023-08-21T11:59:42;33.30;99.90
12967;DHT22;6548;49.996;8.238;2023-08-21T12:02:16;33.30;99.90
12967;DHT22;6548;49.996;8.238;2023-08-21T12:04:42;33.10;99.90
12967;DHT22;6548;49.996;8.238;2023-08-21T12:07:07;32.70;99.90
12967;DHT22;6548;49.996;8.238;2023-08-21T12:09:33;32.50;99.90
12967;DHT22;6548;49.996;8.238;2023-08-21T12:11:59;32.50;99.90
12967;DHT22;6548;49.996;8.238;2023-08-21T12:14:24;32.60;99.90
12967;DHT22;6548;49.996;8.238;2023-08-21T12:16:50;32.80;99.90
12967;DHT22;6548;49.996;8.238;2023-08-21T12:19:16;32.80;99.90
12967;DHT22;6548;49.996;8.238;2023-08-21T12:21:41;32.80;99.90
12967;DHT22;6548;49.996;8.238;2023-08-21T12:24:07;32.70;99.90
12967;DHT22;6548;49.996;8.238;2023-08-21T12:26:33;32.60;99.90
12967;DHT22;6548;49.996;8.238;2023-08-21T12:29:00;32.60;99.90
12967;DHT22;6548;49.996;8.238;2023-08-21T12:31:26;32.70;99.90
12967;DHT22;6548;49.996;8.238;2023-08-21T12:33:51;32.80;99.90
12967;DHT22;6548;49.996;8.238;2023-08-21T12:36:17;32.70;99.90
12967;DHT22;6548;49.996;8.238;2023-08-21T12:38:42;32.50;99.90
12967;DHT22;6548;49.996;8.238;2023-08-21T12:41:08;32.60;99.90
12967;DHT22;6548;49.996;8.238;2023-08-21T12:43:33;32.60;99.90
12967;DHT22;6548;49.996;8.238;2023-08-21T12:45:59;32.40;99.90
12967;DHT22;6548;49.996;8.238;2023-08-21T12:48:24;32.20;99.90
12967;DHT22;6548;49.996;8.238;2023-08-21T12:50:50;32.30;99.90
12967;DHT22;6548;49.996;8.238;2023-08-21T12:53:16;32.40;99.90
12967;DHT22;6548;49.996;8.238;2023-08-21T12:55:41;32.50;99.90
12967;DHT22;6548;49.996;8.238;2023-08-21T12:58:08;32.60;99.90
12967;DHT22;6548;49.996;8.238;2023-08-21T13:00:33;32.50;99.90
12967;DHT22;6548;49.996;8.238;2023-08-21T13:02:59;32.40;99.90
12967;DHT22;6548;49.996;8.238;2023-08-21T13:05:25;32.20;99.90
12967;DHT22;6548;49.996;8.238;2023-08-21T13:07:50;32.40;99.90
12967;DHT22;6548;49.996;8.238;2023-08-21T13:10:16;32.50;99.90
12967;DHT22;6548;49.996;8.238;2023-08-21T13:12:42;32.70;99.90
12967;DHT22;6548;49.996;8.238;2023-08-21T13:15:07;32.80;99.90
12967;DHT22;6548;49.996;8.238;2023-08-21T13:17:34;32.60;99.90
12967;DHT22;6548;49.996;8.238;2023-08-21T13:19:59;32.80;99.90
12967;DHT22;6548;49.996;8.238;2023-08-21T13:22:25;32.80;99.90
12967;DHT22;6548;49.996;8.238;2023-08-21T13:24:50;32.90;99.90
12967;DHT22;6548;49.996;8.238;2023-08-21T13:27:16;32.90;99.90
12967;DHT22;6548;49.996;8.238;2023-08-21T13:29:41;32.90;99.90
12967;DHT22;6548;49.996;8.238;2023-08-21T13:32:07;33.00;99.90
12967;DHT22;6548;49.996;8.238;2023-08-21T13:34:33;33.00;99.90
12967;DHT22;6548;49.996;8.238;2023-08-21T13:36:58;33.00;99.90
12967;DHT22;6548;49.996;8.238;2023-08-21T13:39:24;33.00;99.90
12967;DHT22;6548;49.996;8.238;2023-08-21T13:41:51;33.00;99.90
12967;DHT22;6548;49.996;8.238;2023-08-21T13:44:17;33.00;99.90
12967;DHT22;6548;49.996;8.238;2023-08-21T13:46:42;33.00;99.90
12967;DHT22;6548;49.996;8.238;2023-08-21T13:49:08;32.90;99.90
12967;DHT22;6548;49.996;8.238;2023-08-21T13:51:34;33.00;99.90
12967;DHT22;6548;49.996;8.238;2023-08-21T13:54:00;33.00;99.90
12967;DHT22;6548;49.996;8.238;2023-08-21T13:56:25;33.10;99.90
12967;DHT22;6548;49.996;8.238;2023-08-21T13:58:51;33.00;99.90
12967;DHT22;6548;49.996;8.238;2023-08-21T14:01:16;33.00;99.90
12967;DHT22;6548;49.996;8.238;2023-08-21T14:03:42;32.80;99.90
12967;DHT22;6548;49.996;8.238;2023-08-21T14:06:08;32.80;99.90
12967;DHT22;6548;49.996;8.238;2023-08-21T14:08:37;33.10;99.90
12967;DHT22;6548;49.996;8.238;2023-08-21T14:11:02;33.20;99.90
12967;DHT22;6548;49.996;8.238;2023-08-21T14:13:28;33.30;99.90
12967;DHT22;6548;49.996;8.238;2023-08-21T14:15:56;33.40;99.90
12967;DHT22;6548;49.996;8.238;2023-08-21T14:18:22;33.50;99.90
12967;DHT22;6548;49.996;8.238;2023-08-21T14:20:47;33.50;99.90
12967;DHT22;6548;49.996;8.238;2023-08-21T14:23:13;33.50;99.90
12967;DHT22;6548;49.996;8.238;2023-08-21T14:25:38;33.50;99.90
12967;DHT22;6548;49.996;8.238;2023-08-21T14:28:04;33.60;99.90
12967;DHT22;6548;49.996;8.238;2023-08-21T14:30:30;33.70;99.90
12967;DHT22;6548;49.996;8.238;2023-08-21T14:32:55;33.50;99.90
12967;DHT22;6548;49.996;8.238;2023-08-21T14:35:21;33.50;99.90
12967;DHT22;6548;49.996;8.238;2023-08-21T14:37:46;33.30;99.90
12967;DHT22;6548;49.996;8.238;2023-08-21T14:40:12;33.30;99.90
12967;DHT22;6548;49.996;8.238;2023-08-21T14:42:38;33.20;99.90
12967;DHT22;6548;49.996;8.238;2023-08-21T14:45:04;33.20;99.90
12967;DHT22;6548;49.996;8.238;2023-08-21T14:47:31;33.10;99.90
12967;DHT22;6548;49.996;8.238;2023-08-21T14:49:56;33.00;99.90
12967;DHT22;6548;49.996;8.238;2023-08-21T14:52:22;33.10;99.90
12967;DHT22;6548;49.996;8.238;2023-08-21T14:54:50;33.20;99.90
12967;DHT22;6548;49.996;8.238;2023-08-21T14:57:16;33.30;99.90
12967;DHT22;6548;49.996;8.238;2023-08-21T14:59:44;33.10;99.90
12967;DHT22;6548;49.996;8.238;2023-08-21T15:02:10;33.20;99.90
12967;DHT22;6548;49.996;8.238;2023-08-21T15:04:35;33.30;99.90
12967;DHT22;6548;49.996;8.238;2023-08-21T15:07:02;33.40;99.90
12967;DHT22;6548;49.996;8.238;2023-08-21T15:09:27;33.30;99.90
12967;DHT22;6548;49.996;8.238;2023-08-21T15:11:53;33.30;99.90
12967;DHT22;6548;49.996;8.238;2023-08-21T15:14:18;33.30;99.90
12967;DHT22;6548;49.996;8.238;2023-08-21T15:16:44;33.50;99.90
12967;DHT22;6548;49.996;8.238;2023-08-21T15:19:09;33.70;99.90
12967;DHT22;6548;49.996;8.238;2023-08-21T15:21:35;33.70;99.90
12967;DHT22;6548;49.996;8.238;2023-08-21T15:24:01;33.30;99.90
12967;DHT22;6548;49.996;8.238;2023-08-21T15:26:26;32.90;99.90
12967;DHT22;6548;49.996;8.238;2023-08-21T15:28:52;32.60;99.90
12967;DHT22;6548;49.996;8.238;2023-08-21T15:31:17;32.40;99.90
12967;DHT22;6548;49.996;8.238;2023-08-21T15:33:43;32.90;99.90
12967;DHT22;6548;49.996;8.238;2023-08-21T15:36:08;34.10;99.90
12967;DHT22;6548;49.996;8.238;2023-08-21T15:38:34;35.00;99.90
12967;DHT22;6548;49.996;8.238;2023-08-21T15:40:59;35.30;99.90
12967;DHT22;6548;49.996;8.238;2023-08-21T15:43:25;35.20;99.90
12967;DHT22;6548;49.996;8.238;2023-08-21T15:45:53;34.60;99.90
12967;DHT22;6548;49.996;8.238;2023-08-21T15:48:19;34.00;99.90
12967;DHT22;6548;49.996;8.238;2023-08-21T15:50:45;33.90;99.90
12967;DHT22;6548;49.996;8.238;2023-08-21T15:53:10;33.90;99.90
12967;DHT22;6548;49.996;8.238;2023-08-21T15:55:36;33.80;99.90
12967;DHT22;6548;49.996;8.238;2023-08-21T15:58:01;33.70;99.90
12967;DHT22;6548;49.996;8.238;2023-08-21T16:00:28;33.60;99.90